createdAt,value
2022-11-06T00:00:09.212Z,2.87
2022-11-06T00:02:37.149Z,4.20
2022-11-06T00:05:19.671Z,3.80
2022-11-06T00:07:48.205Z,3.03
2022-11-06T00:10:17.099Z,3.87
2022-11-06T00:12:45.645Z,3.63
2022-11-06T00:15:15.161Z,3.97
2022-11-06T00:17:43.138Z,4.20
2022-11-06T00:20:11.555Z,4.57
2022-11-06T00:22:39.835Z,3.40
2022-11-06T00:25:08.579Z,4.37
2022-11-06T00:27:37.904Z,5.00
2022-11-06T00:30:07.210Z,4.07
2022-11-06T00:32:36.674Z,4.40
2022-11-06T00:35:05.345Z,3.00
2022-11-06T00:37:33.251Z,4.47
2022-11-06T00:40:01.143Z,3.07
2022-11-06T00:42:29.131Z,3.40
2022-11-06T00:44:56.989Z,4.37
2022-11-06T00:47:25.233Z,4.07
2022-11-06T00:49:54.498Z,4.20
2022-11-06T00:52:22.430Z,5.60
2022-11-06T00:54:50.337Z,3.53
2022-11-06T00:57:18.235Z,3.23
2022-11-06T00:59:46.048Z,4.13
2022-11-06T01:02:14.306Z,3.73
2022-11-06T01:04:42.524Z,4.53
2022-11-06T01:07:11.776Z,3.83
2022-11-06T01:09:40.429Z,4.93
2022-11-06T01:12:13.393Z,3.20
2022-11-06T01:14:41.945Z,3.93
2022-11-06T01:17:09.827Z,3.73
2022-11-06T01:19:37.828Z,4.70
2022-11-06T01:22:05.724Z,4.83
2022-11-06T01:24:35.001Z,3.87
2022-11-06T01:27:25.345Z,3.30
2022-11-06T01:29:50.797Z,4.00
2022-11-06T01:32:18.603Z,3.43
2022-11-06T01:34:46.815Z,3.47
2022-11-06T01:37:15.161Z,4.03
2022-11-06T01:39:44.446Z,4.00
2022-11-06T01:42:13.318Z,4.20
2022-11-06T01:45:18.338Z,3.63
2022-11-06T01:47:46.424Z,4.00
2022-11-06T01:50:16.557Z,3.43
2022-11-06T01:52:46.018Z,5.30
2022-11-06T01:55:20.445Z,4.60
2022-11-06T01:57:49.802Z,3.10
2022-11-06T02:00:19.938Z,3.03
2022-11-06T02:02:48.600Z,3.27
2022-11-06T02:05:16.667Z,4.20
2022-11-06T02:07:45.565Z,5.10
2022-11-06T02:10:14.756Z,4.17
2022-11-06T02:12:54.343Z,3.73
2022-11-06T02:15:31.896Z,3.70
2022-11-06T02:18:32.314Z,3.37
2022-11-06T02:21:26.420Z,4.17
2022-11-06T02:24:18.421Z,3.43
2022-11-06T02:27:01.637Z,4.07
2022-11-06T02:29:34.094Z,3.30
2022-11-06T02:32:08.430Z,3.00
2022-11-06T02:34:37.462Z,3.80
2022-11-06T02:37:11.226Z,4.27
2022-11-06T02:39:42.555Z,3.50
2022-11-06T02:42:16.055Z,3.57
2022-11-06T02:44:45.381Z,3.73
2022-11-06T02:47:15.841Z,4.40
2022-11-06T02:49:47.394Z,3.57
2022-11-06T02:52:19.553Z,3.67
2022-11-06T02:54:52.232Z,4.90
2022-11-06T02:57:23.815Z,3.40
2022-11-06T02:59:55.947Z,3.60
2022-11-06T03:02:28.907Z,3.40
2022-11-06T03:05:03.327Z,3.17
2022-11-06T03:07:37.512Z,3.80
2022-11-06T03:10:07.103Z,4.47
2022-11-06T03:12:46.170Z,3.60
2022-11-06T03:15:21.647Z,3.80
2022-11-06T03:17:53.240Z,3.23
2022-11-06T03:20:28.922Z,3.60
2022-11-06T03:23:04.101Z,3.80
2022-11-06T03:25:41.729Z,3.10
2022-11-06T03:28:14.259Z,3.90
2022-11-06T03:30:47.617Z,3.47
2022-11-06T03:33:21.631Z,3.83
2022-11-06T03:35:55.629Z,7.43
2022-11-06T03:38:27.930Z,3.97
2022-11-06T03:41:01.711Z,3.53
2022-11-06T03:43:36.157Z,3.60
2022-11-06T03:46:07.962Z,2.90
2022-11-06T03:48:39.416Z,3.40
2022-11-06T03:51:14.037Z,3.80
2022-11-06T03:53:46.765Z,3.53
2022-11-06T03:56:19.629Z,3.70
2022-11-06T03:58:50.658Z,3.33
2022-11-06T04:01:29.309Z,3.40
2022-11-06T04:04:00.785Z,4.00
2022-11-06T04:06:33.192Z,3.97
2022-11-06T04:09:22.151Z,4.23
2022-11-06T04:12:08.634Z,3.93
2022-11-06T04:14:40.514Z,3.53
2022-11-06T04:17:12.404Z,3.30
2022-11-06T04:19:46.864Z,3.60
2022-11-06T04:22:32.662Z,3.60
2022-11-06T04:25:25.882Z,3.40
2022-11-06T04:28:03.565Z,3.77
2022-11-06T04:30:40.292Z,3.50
2022-11-06T04:33:12.806Z,3.40
2022-11-06T04:35:53.908Z,3.80
2022-11-06T04:38:30.229Z,3.70
2022-11-06T04:41:12.189Z,3.17
2022-11-06T04:43:45.039Z,3.13
2022-11-06T04:46:20.820Z,3.83
2022-11-06T04:48:50.168Z,3.47
2022-11-06T04:51:26.488Z,3.90
2022-11-06T04:53:55.223Z,3.27
2022-11-06T04:56:29.164Z,3.00
2022-11-06T04:58:57.304Z,3.90
2022-11-06T05:01:27.175Z,2.80
2022-11-06T05:03:55.110Z,2.70
2022-11-06T05:06:28.673Z,4.33
2022-11-06T05:08:58.965Z,3.90
2022-11-06T05:11:26.786Z,3.33
2022-11-06T05:13:54.679Z,3.03
2022-11-06T05:16:22.656Z,3.43
2022-11-06T05:18:51.860Z,4.73
2022-11-06T05:21:37.327Z,3.17
2022-11-06T05:24:06.071Z,3.20
2022-11-06T05:26:34.135Z,3.10
2022-11-06T05:29:01.966Z,2.93
2022-11-06T05:31:29.839Z,2.87
2022-11-06T05:33:59.020Z,3.03
2022-11-06T05:36:27.098Z,3.20
2022-11-06T05:38:54.925Z,3.23
2022-11-06T05:41:22.774Z,4.07
2022-11-06T05:43:50.671Z,2.70
2022-11-06T05:46:42.665Z,3.67
2022-11-06T05:49:07.656Z,3.03
2022-11-06T05:51:35.823Z,3.07
2022-11-06T05:54:04.266Z,3.00
2022-11-06T05:56:32.178Z,2.90
2022-11-06T05:59:00.050Z,3.00
2022-11-06T06:01:27.968Z,2.87
2022-11-06T06:03:56.207Z,2.90
2022-11-06T06:06:25.490Z,2.90
2022-11-06T06:08:53.301Z,2.67
2022-11-06T06:11:21.166Z,2.70
2022-11-06T06:13:49.307Z,2.93
2022-11-06T06:16:17.150Z,3.20
2022-11-06T06:18:45.012Z,3.47
2022-11-06T06:21:12.846Z,3.40
2022-11-06T06:23:42.530Z,2.50
2022-11-06T06:26:10.808Z,3.80
2022-11-06T06:28:38.634Z,2.60
2022-11-06T06:31:07.206Z,3.37
2022-11-06T06:33:35.058Z,2.80
2022-11-06T06:36:04.585Z,3.17
2022-11-06T06:38:32.525Z,3.80
2022-11-06T06:41:05.916Z,3.47
2022-11-06T06:43:33.893Z,3.20
2022-11-06T06:46:02.990Z,3.17
2022-11-06T06:48:31.494Z,2.90
2022-11-06T06:50:59.535Z,3.00
2022-11-06T06:53:27.838Z,4.10
2022-11-06T06:55:55.801Z,3.17
2022-11-06T06:58:25.348Z,3.10
2022-11-06T07:00:53.579Z,3.57
2022-11-06T07:03:21.435Z,3.10
2022-11-06T07:05:49.241Z,2.80
2022-11-06T07:08:17.126Z,2.90
2022-11-06T07:10:44.944Z,2.67
2022-11-06T07:13:13.139Z,4.23
2022-11-06T07:15:42.496Z,2.90
2022-11-06T07:18:11.520Z,3.83
2022-11-06T07:20:39.714Z,3.40
2022-11-06T07:23:08.248Z,3.00
2022-11-06T07:25:36.460Z,2.77
2022-11-06T07:28:05.160Z,3.30
2022-11-06T07:30:34.048Z,3.10
2022-11-06T07:33:04.326Z,3.23
2022-11-06T07:35:33.721Z,3.07
2022-11-06T07:38:04.954Z,3.00
2022-11-06T07:40:33.365Z,3.10
2022-11-06T07:43:05.496Z,3.20
2022-11-06T07:45:33.356Z,2.47
2022-11-06T07:48:01.262Z,3.00
2022-11-06T07:50:30.977Z,3.80
2022-11-06T07:52:59.066Z,3.47
2022-11-06T07:55:26.909Z,2.47
2022-11-06T07:57:54.806Z,3.70
2022-11-06T08:00:22.764Z,3.60
2022-11-06T08:02:52.926Z,2.77
2022-11-06T08:05:20.884Z,2.73
2022-11-06T08:07:50.074Z,3.03
2022-11-06T08:10:18.006Z,2.53
2022-11-06T08:12:45.844Z,2.63
2022-11-06T08:15:13.665Z,3.87
2022-11-06T08:17:41.497Z,3.00
2022-11-06T08:20:10.808Z,3.07
2022-11-06T08:22:38.669Z,3.00
2022-11-06T08:25:09.628Z,3.87
2022-11-06T08:27:37.772Z,2.30
2022-11-06T08:30:06.559Z,2.60
2022-11-06T08:32:34.398Z,3.30
2022-11-06T08:35:02.252Z,2.50
2022-11-06T08:37:30.076Z,3.03
2022-11-06T08:39:57.923Z,2.83
2022-11-06T08:42:27.080Z,2.43
2022-11-06T08:44:54.912Z,3.13
2022-11-06T08:47:22.757Z,3.00
2022-11-06T08:49:50.589Z,2.60
2022-11-06T08:52:18.442Z,2.97
2022-11-06T08:54:46.288Z,2.33
2022-11-06T08:57:14.557Z,2.83
2022-11-06T08:59:43.726Z,3.23
2022-11-06T09:02:14.349Z,3.20
2022-11-06T09:04:42.458Z,2.40
2022-11-06T09:07:11.025Z,2.50
2022-11-06T09:09:38.920Z,3.13
2022-11-06T09:12:07.734Z,2.53
2022-11-06T09:14:35.852Z,2.73
2022-11-06T09:17:05.021Z,2.40
2022-11-06T09:19:32.897Z,3.00
2022-11-06T09:22:00.847Z,2.80
2022-11-06T09:24:57.175Z,2.80
2022-11-06T09:27:17.551Z,3.30
2022-11-06T09:29:45.373Z,2.70
2022-11-06T09:32:14.633Z,2.73
2022-11-06T09:34:42.460Z,2.80
2022-11-06T09:37:10.293Z,3.20
2022-11-06T09:39:38.570Z,2.60
2022-11-06T09:42:13.602Z,3.67
2022-11-06T09:44:57.193Z,3.07
2022-11-06T09:47:30.942Z,2.57
2022-11-06T09:49:59.305Z,2.90
2022-11-06T09:52:36.919Z,2.60
2022-11-06T09:55:11.682Z,2.40
2022-11-06T09:57:45.743Z,2.40
2022-11-06T10:00:16.906Z,2.83
2022-11-06T10:02:51.114Z,2.50
2022-11-06T10:05:25.625Z,2.83
2022-11-06T10:07:57.377Z,2.43
2022-11-06T10:10:31.350Z,2.50
2022-11-06T10:13:17.651Z,3.40
2022-11-06T10:15:53.008Z,2.70
2022-11-06T10:18:29.747Z,2.87
2022-11-06T10:21:08.364Z,2.83
2022-11-06T10:23:45.131Z,2.47
2022-11-06T10:26:16.309Z,2.70
2022-11-06T10:29:08.575Z,2.80
2022-11-06T10:31:41.782Z,3.27
2022-11-06T10:34:14.382Z,2.63
2022-11-06T10:36:50.121Z,2.43
2022-11-06T10:39:22.686Z,2.60
2022-11-06T10:41:55.835Z,2.80
2022-11-06T10:44:26.316Z,4.23
2022-11-06T10:46:57.881Z,2.60
2022-11-06T10:49:36.283Z,2.60
2022-11-06T10:52:29.636Z,2.80
2022-11-06T10:55:11.263Z,2.40
2022-11-06T10:57:47.362Z,2.93
2022-11-06T11:00:16.454Z,2.97
2022-11-06T11:02:47.643Z,3.10
2022-11-06T11:05:19.710Z,3.60
2022-11-06T11:07:49.393Z,2.60
2022-11-06T11:10:29.313Z,2.57
2022-11-06T11:13:00.041Z,2.53
2022-11-06T11:15:32.329Z,2.40
2022-11-06T11:18:17.379Z,2.50
2022-11-06T11:20:48.100Z,2.80
2022-11-06T11:23:18.453Z,1.90
2022-11-06T11:25:48.471Z,2.60
2022-11-06T11:28:37.703Z,2.40
2022-11-06T11:31:11.757Z,4.20
2022-11-06T11:33:41.772Z,2.60
2022-11-06T11:36:11.621Z,2.50
2022-11-06T11:38:41.944Z,2.40
2022-11-06T11:41:13.603Z,2.27
2022-11-06T11:43:42.576Z,2.80
2022-11-06T11:46:20.627Z,2.90
2022-11-06T11:48:51.241Z,2.37
2022-11-06T11:51:39.466Z,2.70
2022-11-06T11:54:19.468Z,3.27
2022-11-06T11:57:04.873Z,2.80
2022-11-06T11:59:38.344Z,2.70
2022-11-06T12:02:16.597Z,2.50
2022-11-06T12:04:48.568Z,2.60
2022-11-06T12:07:26.719Z,2.33
2022-11-06T12:09:54.761Z,2.17
2022-11-06T12:12:25.078Z,2.53
2022-11-06T12:15:06.866Z,2.63
2022-11-06T12:17:36.835Z,2.80
2022-11-06T12:20:11.661Z,2.07
2022-11-06T12:22:44.965Z,2.33
2022-11-06T12:25:17.443Z,2.10
2022-11-06T12:27:48.920Z,3.07
2022-11-06T12:30:19.201Z,2.67
2022-11-06T12:33:04.227Z,2.27
2022-11-06T12:35:33.268Z,2.90
2022-11-06T12:38:13.798Z,2.17
2022-11-06T12:40:46.122Z,2.20
2022-11-06T12:43:18.950Z,2.70
2022-11-06T12:46:03.668Z,2.43
2022-11-06T12:48:53.482Z,2.37
2022-11-06T12:51:30.869Z,2.27
2022-11-06T12:54:12.748Z,2.43
2022-11-06T12:56:49.357Z,2.43
2022-11-06T12:59:28.008Z,2.00
2022-11-06T13:02:05.237Z,2.20
2022-11-06T13:04:41.799Z,1.90
2022-11-06T13:07:33.424Z,2.30
2022-11-06T13:10:18.229Z,2.13
2022-11-06T13:12:55.128Z,2.30
2022-11-06T13:15:30.300Z,2.20
2022-11-06T13:18:02.812Z,2.40
2022-11-06T13:20:36.267Z,2.83
2022-11-06T13:23:11.082Z,2.40
2022-11-06T13:25:49.093Z,2.60
2022-11-06T13:28:29.082Z,1.90
2022-11-06T13:30:58.902Z,3.10
2022-11-06T13:33:29.639Z,1.70
2022-11-06T13:35:59.631Z,2.07
2022-11-06T13:38:30.985Z,2.27
2022-11-06T13:41:04.317Z,2.07
2022-11-06T13:43:36.794Z,2.73
2022-11-06T13:46:12.036Z,2.10
2022-11-06T13:48:49.734Z,2.97
2022-11-06T13:51:25.054Z,1.80
2022-11-06T13:54:01.925Z,2.40
2022-11-06T13:56:53.198Z,1.90
2022-11-06T13:59:41.036Z,1.70
2022-11-06T14:02:28.742Z,2.40
2022-11-06T14:05:38.810Z,2.00
2022-11-06T14:08:13.123Z,2.27
2022-11-06T14:10:51.044Z,1.90
2022-11-06T14:13:25.231Z,2.10
2022-11-06T14:16:05.136Z,2.00
2022-11-06T14:18:33.873Z,2.07
2022-11-06T14:21:28.423Z,2.00
2022-11-06T14:24:05.268Z,2.67
2022-11-06T14:26:43.891Z,2.20
2022-11-06T14:29:43.929Z,1.70
2022-11-06T14:32:13.293Z,2.00
2022-11-06T14:34:42.542Z,2.10
2022-11-06T14:37:46.146Z,1.77
2022-11-06T14:40:14.968Z,2.00
2022-11-06T14:42:46.838Z,2.13
2022-11-06T14:45:21.291Z,3.00
2022-11-06T14:47:54.340Z,2.30
2022-11-06T14:50:27.340Z,2.40
2022-11-06T14:52:59.216Z,2.50
2022-11-06T14:55:33.865Z,2.10
2022-11-06T14:58:19.639Z,2.00
2022-11-06T15:00:55.310Z,2.40
2022-11-06T15:03:27.654Z,2.00
2022-11-06T15:06:01.360Z,1.60
2022-11-06T15:09:00.385Z,2.40
2022-11-06T15:11:50.339Z,1.80
2022-11-06T15:14:56.236Z,2.03
2022-11-06T15:17:33.226Z,3.00
2022-11-06T15:20:15.975Z,2.13
2022-11-06T15:22:48.653Z,2.00
2022-11-06T15:25:23.219Z,1.90
2022-11-06T15:27:59.212Z,2.10
2022-11-06T15:30:29.035Z,2.07
2022-11-06T15:33:03.217Z,2.30
2022-11-06T15:35:35.624Z,1.67
2022-11-06T15:38:08.579Z,2.10
2022-11-06T15:40:38.167Z,3.13
2022-11-06T15:43:08.814Z,1.70
2022-11-06T15:45:36.705Z,2.43
2022-11-06T15:48:17.412Z,2.10
2022-11-06T15:50:45.224Z,2.03
2022-11-06T15:53:23.464Z,1.70
2022-11-06T15:55:55.342Z,1.80
2022-11-06T15:58:31.284Z,2.00
2022-11-06T16:01:00.464Z,1.80
2022-11-06T16:03:32.075Z,1.80
2022-11-06T16:06:02.726Z,1.90
2022-11-06T16:08:32.192Z,1.80
2022-11-06T16:11:01.437Z,1.70
2022-11-06T16:13:29.814Z,2.47
2022-11-06T16:16:00.509Z,2.27
2022-11-06T16:18:32.776Z,2.10
2022-11-06T16:21:02.834Z,2.97
2022-11-06T16:23:38.851Z,2.67
2022-11-06T16:26:10.616Z,1.90
2022-11-06T16:28:43.852Z,1.90
2022-11-06T16:31:16.318Z,1.93
2022-11-06T16:33:56.239Z,1.93
2022-11-06T16:36:24.777Z,2.10
2022-11-06T16:38:53.347Z,2.20
2022-11-06T16:41:41.048Z,2.03
2022-11-06T16:44:29.290Z,2.00
2022-11-06T16:47:13.715Z,1.90
2022-11-06T16:49:46.646Z,1.90
2022-11-06T16:52:22.098Z,1.80
2022-11-06T16:54:51.447Z,1.90
2022-11-06T16:57:22.615Z,1.60
2022-11-06T17:00:06.560Z,2.00
2022-11-06T17:02:38.278Z,2.53
2022-11-06T17:05:16.560Z,1.90
2022-11-06T17:07:46.035Z,2.97
2022-11-06T17:10:36.207Z,1.97
2022-11-06T17:13:13.808Z,2.00
2022-11-06T17:15:42.058Z,2.00
2022-11-06T17:18:15.879Z,2.20
2022-11-06T17:20:48.461Z,2.10
2022-11-06T17:23:17.148Z,2.23
2022-11-06T17:25:47.120Z,2.17
2022-11-06T17:28:15.023Z,1.67
2022-11-06T17:30:42.885Z,2.10
2022-11-06T17:33:10.938Z,2.20
2022-11-06T17:35:39.212Z,2.13
2022-11-06T17:38:08.466Z,1.80
2022-11-06T17:40:36.657Z,2.20
2022-11-06T17:43:04.482Z,2.63
2022-11-06T17:45:32.812Z,1.70
2022-11-06T17:48:00.690Z,2.70
2022-11-06T17:50:28.533Z,2.07
2022-11-06T17:52:56.484Z,2.30
2022-11-06T17:55:25.655Z,1.97
2022-11-06T17:57:53.617Z,2.10
2022-11-06T18:00:22.776Z,2.30
2022-11-06T18:03:02.230Z,2.00
2022-11-06T18:05:30.469Z,1.87
2022-11-06T18:07:58.313Z,1.93
2022-11-06T18:10:30.603Z,2.07
2022-11-06T18:12:58.715Z,2.43
2022-11-06T18:15:26.526Z,2.07
2022-11-06T18:17:54.430Z,2.23
2022-11-06T18:20:22.240Z,1.87
2022-11-06T18:22:50.054Z,1.90
2022-11-06T18:25:17.940Z,1.90
2022-11-06T18:27:47.222Z,2.70
2022-11-06T18:30:15.230Z,2.33
2022-11-06T18:32:43.035Z,1.90
2022-11-06T18:35:10.994Z,1.90
2022-11-06T18:37:38.803Z,2.07
2022-11-06T18:40:07.499Z,1.90
2022-11-06T18:42:35.317Z,1.90
2022-11-06T18:45:05.135Z,2.67
2022-11-06T18:47:32.962Z,2.50
2022-11-06T18:50:00.838Z,2.17
2022-11-06T18:52:55.840Z,1.80
2022-11-06T18:55:17.436Z,2.87
2022-11-06T18:57:45.298Z,2.00
2022-11-06T19:00:15.903Z,2.10
2022-11-06T19:02:43.821Z,1.50
2022-11-06T19:05:11.803Z,1.90
2022-11-06T19:07:39.668Z,2.30
2022-11-06T19:10:08.642Z,2.00
2022-11-06T19:12:36.740Z,2.00
2022-11-06T19:15:04.871Z,1.80
2022-11-06T19:17:34.083Z,1.70
2022-11-06T19:20:01.961Z,2.20
2022-11-06T19:22:30.918Z,2.17
2022-11-06T19:24:58.730Z,2.30
2022-11-06T19:27:26.576Z,2.20
2022-11-06T19:29:54.380Z,1.77
2022-11-06T19:32:22.233Z,1.90
2022-11-06T19:34:51.392Z,2.00
2022-11-06T19:37:19.230Z,2.10
2022-11-06T19:39:47.064Z,1.67
2022-11-06T19:42:14.890Z,2.03
2022-11-06T19:44:42.725Z,2.07
2022-11-06T19:47:10.550Z,2.87
2022-11-06T19:49:38.373Z,2.20
2022-11-06T19:52:41.600Z,2.30
2022-11-06T19:55:24.726Z,2.50
2022-11-06T19:57:43.383Z,1.80
2022-11-06T20:00:12.359Z,2.43
2022-11-06T20:02:40.244Z,1.87
2022-11-06T20:05:08.570Z,2.00
2022-11-06T20:07:38.155Z,1.77
2022-11-06T20:10:06.556Z,2.20
2022-11-06T20:12:34.404Z,1.80
2022-11-06T20:15:02.225Z,2.00
2022-11-06T20:17:30.051Z,1.73
2022-11-06T20:19:58.220Z,1.80
2022-11-06T20:22:26.046Z,1.90
2022-11-06T20:24:55.196Z,2.10
2022-11-06T20:27:23.085Z,2.50
2022-11-06T20:29:50.901Z,2.47
2022-11-06T20:32:19.316Z,2.13
2022-11-06T20:34:48.424Z,1.87
2022-11-06T20:37:16.300Z,2.30
2022-11-06T20:39:45.384Z,2.30
2022-11-06T20:42:14.641Z,1.80
2022-11-06T20:44:42.501Z,2.13
2022-11-06T20:47:10.571Z,3.00
2022-11-06T20:49:38.485Z,2.60
2022-11-06T20:52:15.100Z,2.00
2022-11-06T20:54:47.126Z,2.00
2022-11-06T20:57:17.199Z,1.90
2022-11-06T20:59:45.046Z,2.07
2022-11-06T21:02:13.256Z,1.70
2022-11-06T21:04:41.214Z,1.80
2022-11-06T21:07:09.150Z,1.70
2022-11-06T21:09:37.355Z,2.13
2022-11-06T21:12:05.683Z,2.00
2022-11-06T21:14:35.070Z,1.93
2022-11-06T21:17:03.345Z,1.90
2022-11-06T21:19:33.003Z,2.00
2022-11-06T21:22:00.870Z,1.70
2022-11-06T21:24:28.768Z,2.50
2022-11-06T21:26:57.241Z,1.90
2022-11-06T21:29:25.993Z,1.90
2022-11-06T21:31:55.328Z,2.20
2022-11-06T21:34:23.248Z,1.70
2022-11-06T21:36:51.172Z,2.70
2022-11-06T21:39:20.631Z,1.77
2022-11-06T21:41:48.882Z,2.30
2022-11-06T21:44:19.047Z,2.17
2022-11-06T21:46:47.195Z,1.90
2022-11-06T21:49:16.449Z,2.00
2022-11-06T21:51:44.278Z,2.10
2022-11-06T21:54:30.281Z,2.60
2022-11-06T21:56:58.178Z,2.20
2022-11-06T21:59:27.932Z,1.90
2022-11-06T22:01:55.961Z,1.97
2022-11-06T22:04:25.724Z,2.00
2022-11-06T22:06:53.619Z,1.97
2022-11-06T22:09:25.230Z,2.00
2022-11-06T22:11:53.612Z,1.80
2022-11-06T22:14:21.606Z,2.03
2022-11-06T22:16:49.829Z,1.60
2022-11-06T22:19:18.205Z,2.27
2022-11-06T22:21:47.388Z,2.00
2022-11-06T22:24:16.525Z,2.27
2022-11-06T22:26:44.394Z,2.17
2022-11-06T22:29:16.259Z,1.90
2022-11-06T22:31:44.153Z,2.00
2022-11-06T22:34:13.859Z,3.17
2022-11-06T22:36:42.166Z,2.03
2022-11-06T22:39:12.744Z,1.70
2022-11-06T22:41:41.129Z,2.10
2022-11-06T22:44:09.709Z,2.70
2022-11-06T22:46:37.788Z,1.73
2022-11-06T22:49:06.436Z,1.97
2022-11-06T22:51:34.958Z,1.93
2022-11-06T22:54:03.466Z,1.80
2022-11-06T22:56:33.706Z,2.10
2022-11-06T22:59:03.323Z,2.10
2022-11-06T23:01:37.417Z,1.90
2022-11-06T23:04:14.900Z,2.00
2022-11-06T23:06:44.172Z,1.77
2022-11-06T23:09:12.244Z,1.83
2022-11-06T23:11:41.448Z,2.03
2022-11-06T23:14:09.668Z,1.70
2022-11-06T23:16:55.672Z,1.87
2022-11-06T23:19:24.421Z,1.90
2022-11-06T23:22:12.852Z,1.70
2022-11-06T23:24:40.847Z,2.33
2022-11-06T23:27:10.513Z,2.07
2022-11-06T23:29:38.800Z,1.70
2022-11-06T23:32:07.372Z,2.10
2022-11-06T23:34:35.403Z,2.07
2022-11-06T23:37:03.226Z,2.07
2022-11-06T23:39:31.185Z,1.80
2022-11-06T23:41:59.061Z,2.00
2022-11-06T23:44:45.574Z,1.67
2022-11-06T23:47:13.467Z,1.87
2022-11-06T23:49:41.316Z,2.33
2022-11-06T23:52:09.219Z,2.07
2022-11-06T23:54:37.227Z,1.93
2022-11-06T23:57:05.279Z,1.63
2022-11-06T23:59:34.507Z,1.67
